TAF Text Data
IDs:
Format:
Raw Decoded Include METAR

Data at: 0816 UTC 27 Feb 2020

KMSL 270520Z 2706/2806 32012KT P6SM BKN035 OVC050
  TEMPO 2706/2707 -SHSN
  FM270700 32008KT P6SM FEW025 FEW150 SCT250
  FM271400 29006KT P6SM SCT120 SCT250
  FM280300 26008KT P6SM BKN080 OVC180